Time,TemperatureF,DewpointF,PressureIn,WindDirection,WindDirectionDegrees,WindSpeedMPH,WindSpeedGustMPH,Humidity,HourlyPrecipIn,Conditions,Clouds,dailyrainin,SoftwareType,DateUTC
2013-12-10 00:00:00,40.8,40.3,29.78,WNW,292,2.2,-999.0,98,-99.99,,,0.00,Acu-Link.com,2013-12-10 05:00:00,
2013-12-10 00:16:00,40.8,40.3,29.82,West,270,2.2,-999.0,98,-99.99,,,0.00,Acu-Link.com,2013-12-10 05:16:00,
2013-12-10 00:31:00,40.8,40.3,29.82,NW,315,2.2,-999.0,98,-99.99,,,0.01,Acu-Link.com,2013-12-10 05:31:00,
2013-12-10 00:46:00,40.6,40.1,29.78,NNE,22,2.2,-999.0,98,-99.99,,,0.02,Acu-Link.com,2013-12-10 05:46:00,
2013-12-10 01:01:00,40.3,39.8,29.77,East,90,1.7,-999.0,98,-99.99,,,0.03,Acu-Link.com,2013-12-10 06:01:00,
2013-12-10 01:16:00,40.3,39.8,29.75,NNE,22,0.0,-999.0,98,-99.99,,,0.05,Acu-Link.com,2013-12-10 06:16:00,
2013-12-10 01:32:00,40.1,39.6,29.75,ENE,67,1.7,-999.0,98,-99.99,,,0.07,Acu-Link.com,2013-12-10 06:32:00,
2013-12-10 01:47:00,39.9,39.4,29.75,SSW,202,1.1,-999.0,98,-99.99,,,0.07,Acu-Link.com,2013-12-10 06:47:00,
2013-12-10 02:02:00,39.6,39.1,29.78,ESE,112,0.0,-999.0,98,-99.99,,,0.09,Acu-Link.com,2013-12-10 07:02:00,
2013-12-10 02:18:00,39.2,38.7,29.76,WNW,292,3.7,-999.0,98,-99.99,,,0.16,Acu-Link.com,2013-12-10 07:18:00,
2013-12-10 02:33:00,39.0,38.5,29.77,NNW,337,2.7,-999.0,98,-99.99,,,0.20,Acu-Link.com,2013-12-10 07:33:00,
2013-12-10 02:48:00,38.8,38.3,29.73,NNE,22,2.7,-999.0,98,-99.99,,,0.24,Acu-Link.com,2013-12-10 07:48:00,
2013-12-10 03:03:00,38.8,38.3,29.75,West,270,2.2,-999.0,98,-99.99,,,0.27,Acu-Link.com,2013-12-10 08:03:00,
2013-12-10 03:18:00,38.8,38.3,29.77,SSW,202,1.7,-999.0,98,-99.99,,,0.31,Acu-Link.com,2013-12-10 08:18:00,
2013-12-10 03:33:00,38.7,38.2,29.78,West,270,2.2,-999.0,98,-99.99,,,0.33,Acu-Link.com,2013-12-10 08:33:00,
2013-12-10 03:48:00,38.1,37.6,29.78,West,270,5.8,-999.0,98,-99.99,,,0.37,Acu-Link.com,2013-12-10 08:48:00,
2013-12-10 04:04:00,37.8,37.3,29.78,NNW,337,2.7,-999.0,98,-99.99,,,0.44,Acu-Link.com,2013-12-10 09:04:00,
2013-12-10 04:19:00,37.0,36.5,29.78,WNW,292,4.2,-999.0,98,-99.99,,,0.47,Acu-Link.com,2013-12-10 09:19:00,
2013-12-10 04:34:00,36.7,36.2,29.79,NW,315,4.2,-999.0,98,-99.99,,,0.49,Acu-Link.com,2013-12-10 09:34:00,
2013-12-10 04:49:00,36.5,36.0,29.80,West,270,3.7,-999.0,98,-99.99,,,0.51,Acu-Link.com,2013-12-10 09:49:00,
2013-12-10 05:05:00,36.3,35.8,29.80,NNW,337,3.2,-999.0,98,-99.99,,,0.53,Acu-Link.com,2013-12-10 10:05:00,
2013-12-10 05:20:00,36.3,35.8,29.79,WNW,292,1.7,-999.0,98,-99.99,,,0.54,Acu-Link.com,2013-12-10 10:20:00,
2013-12-10 05:35:00,36.1,35.6,29.79,West,270,2.2,-999.0,98,-99.99,,,0.55,Acu-Link.com,2013-12-10 10:35:00,
2013-12-10 05:50:00,35.6,35.1,29.79,NE,45,4.2,-999.0,98,-99.99,,,0.56,Acu-Link.com,2013-12-10 10:50:00,
2013-12-10 06:05:00,35.6,35.1,29.78,NW,315,1.7,-999.0,98,-99.99,,,0.57,Acu-Link.com,2013-12-10 11:05:00,
2013-12-10 06:20:00,35.4,34.9,29.78,NW,315,4.2,-999.0,98,-99.99,,,0.58,Acu-Link.com,2013-12-10 11:20:00,
2013-12-10 06:35:00,35.4,34.9,29.81,NW,315,2.7,-999.0,98,-99.99,,,0.58,Acu-Link.com,2013-12-10 11:35:00,
2013-12-10 06:51:00,35.4,34.9,29.82,NNW,337,3.2,-999.0,98,-99.99,,,0.58,Acu-Link.com,2013-12-10 11:51:00,
2013-12-10 07:06:00,35.2,34.7,29.81,NW,315,2.7,-999.0,98,-99.99,,,0.58,Acu-Link.com,2013-12-10 12:06:00,
2013-12-10 07:21:00,35.1,34.6,29.81,NNW,337,4.2,-999.0,98,-99.99,,,0.59,Acu-Link.com,2013-12-10 12:21:00,
2013-12-10 07:37:00,34.9,34.4,29.83,WNW,292,3.2,-999.0,98,-99.99,,,0.59,Acu-Link.com,2013-12-10 12:37:00,
2013-12-10 07:52:00,34.9,34.4,29.85,West,270,1.7,-999.0,98,-99.99,,,0.59,Acu-Link.com,2013-12-10 12:52:00,
2013-12-10 08:07:00,34.9,34.4,29.85,WNW,292,1.1,-999.0,98,-99.99,,,0.59,Acu-Link.com,2013-12-10 13:07:00,
2013-12-10 08:23:00,35.1,34.6,29.87,SSW,202,1.1,-999.0,98,-99.99,,,0.59,Acu-Link.com,2013-12-10 13:23:00,
2013-12-10 08:38:00,35.2,34.7,29.87,West,270,0.0,-999.0,98,-99.99,,,0.59,Acu-Link.com,2013-12-10 13:38:00,
2013-12-10 08:53:00,35.2,34.7,29.90,WSW,247,1.7,-999.0,98,-99.99,,,0.59,Acu-Link.com,2013-12-10 13:53:00,
2013-12-10 09:08:00,35.4,34.9,29.92,West,270,1.1,-999.0,98,-99.99,,,0.60,Acu-Link.com,2013-12-10 14:08:00,
2013-12-10 09:23:00,35.4,34.9,29.94,ENE,67,0.0,-999.0,98,-99.99,,,0.61,Acu-Link.com,2013-12-10 14:23:00,
2013-12-10 09:39:00,35.4,34.9,29.95,WSW,247,2.2,-999.0,98,-99.99,,,0.61,Acu-Link.com,2013-12-10 14:39:00,
2013-12-10 09:54:00,35.4,34.9,29.96,South,180,1.7,-999.0,98,-99.99,,,0.63,Acu-Link.com,2013-12-10 14:54:00,
2013-12-10 10:09:00,35.6,35.1,29.98,WNW,292,2.2,-999.0,98,-99.99,,,0.63,Acu-Link.com,2013-12-10 15:09:00,
2013-12-10 10:24:00,36.0,35.5,30.01,WNW,292,2.2,-999.0,98,-99.99,,,0.63,Acu-Link.com,2013-12-10 15:24:00,
2013-12-10 10:40:00,36.0,35.5,30.02,SSW,202,1.7,-999.0,98,-99.99,,,0.63,Acu-Link.com,2013-12-10 15:40:00,
2013-12-10 10:55:00,36.1,35.6,30.03,NNW,337,3.2,-999.0,98,-99.99,,,0.63,Acu-Link.com,2013-12-10 15:55:00,
2013-12-10 11:10:00,35.6,35.1,30.04,NW,315,3.2,-999.0,98,-99.99,,,0.63,Acu-Link.com,2013-12-10 16:10:00,
2013-12-10 11:25:00,36.0,35.5,30.04,West,270,2.2,-999.0,98,-99.99,,,0.63,Acu-Link.com,2013-12-10 16:25:00,
2013-12-10 11:40:00,36.1,35.6,30.04,NNW,337,6.3,-999.0,98,-99.99,,,0.63,Acu-Link.com,2013-12-10 16:40:00,
2013-12-10 11:55:00,36.1,35.6,30.03,NNE,22,3.2,-999.0,98,-99.99,,,0.63,Acu-Link.com,2013-12-10 16:55:00,
2013-12-10 12:10:00,39.7,39.2,30.03,ESE,112,4.2,-999.0,98,-99.99,,,0.63,Acu-Link.com,2013-12-10 17:10:00,
2013-12-10 12:26:00,40.3,39.8,30.04,WSW,247,2.7,-999.0,98,-99.99,,,0.63,Acu-Link.com,2013-12-10 17:26:00,
2013-12-10 12:41:00,40.1,39.6,30.04,ESE,112,0.0,-999.0,98,-99.99,,,0.63,Acu-Link.com,2013-12-10 17:41:00,
2013-12-10 12:56:00,39.7,39.2,30.02,West,270,2.2,-999.0,98,-99.99,,,0.63,Acu-Link.com,2013-12-10 17:56:00,
2013-12-10 13:11:00,40.8,40.3,30.01,NNW,337,1.7,-999.0,98,-99.99,,,0.63,Acu-Link.com,2013-12-10 18:11:00,
2013-12-10 13:27:00,43.3,40.6,30.02,NE,45,2.2,-999.0,90,-99.99,,,0.63,Acu-Link.com,2013-12-10 18:27:00,
2013-12-10 13:42:00,40.5,40.0,30.02,SW,225,0.0,-999.0,98,-99.99,,,0.63,Acu-Link.com,2013-12-10 18:42:00,
2013-12-10 13:57:00,39.4,38.9,30.03,SW,225,2.2,-999.0,98,-99.99,,,0.63,Acu-Link.com,2013-12-10 18:57:00,
2013-12-10 14:12:00,43.0,37.9,30.03,SW,225,2.7,-999.0,82,-99.99,,,0.63,Acu-Link.com,2013-12-10 19:12:00,
2013-12-10 14:27:00,41.4,37.2,30.03,NNE,22,2.7,-999.0,85,-99.99,,,0.63,Acu-Link.com,2013-12-10 19:27:00,
2013-12-10 14:42:00,40.8,38.4,30.02,SSW,202,1.7,-999.0,91,-99.99,,,0.63,Acu-Link.com,2013-12-10 19:42:00,
2013-12-10 14:57:00,43.9,37.2,30.02,North,0,3.7,-999.0,77,-99.99,,,0.63,Acu-Link.com,2013-12-10 19:57:00,
2013-12-10 15:12:00,47.3,38.4,30.02,West,270,3.2,-999.0,71,-99.99,,,0.63,Acu-Link.com,2013-12-10 20:12:00,
2013-12-10 15:27:00,45.9,38.8,30.02,WSW,247,2.2,-999.0,76,-99.99,,,0.63,Acu-Link.com,2013-12-10 20:27:00,
2013-12-10 15:43:00,45.7,37.9,30.04,South,180,2.7,-999.0,74,-99.99,,,0.63,Acu-Link.com,2013-12-10 20:43:00,
2013-12-10 15:58:00,45.3,39.5,30.04,South,180,2.7,-999.0,80,-99.99,,,0.63,Acu-Link.com,2013-12-10 20:58:00,
2013-12-10 16:13:00,41.7,41.2,30.04,WNW,292,2.2,-999.0,98,-99.99,,,0.63,Acu-Link.com,2013-12-10 21:13:00,
2013-12-10 16:29:00,42.8,37.1,30.05,NW,315,2.2,-999.0,80,-99.99,,,0.63,Acu-Link.com,2013-12-10 21:29:00,
2013-12-10 16:44:00,41.0,35.3,30.06,SSE,157,3.2,-999.0,80,-99.99,,,0.63,Acu-Link.com,2013-12-10 21:44:00,
2013-12-10 16:59:00,39.7,33.4,30.08,West,270,2.7,-999.0,78,-99.99,,,0.63,Acu-Link.com,2013-12-10 21:59:00,
2013-12-10 17:14:00,37.4,36.4,30.06,SSE,157,1.7,-999.0,96,-99.99,,,0.63,Acu-Link.com,2013-12-10 22:14:00,
2013-12-10 17:29:00,35.8,35.3,30.06,SSE,157,0.0,-999.0,98,-99.99,,,0.63,Acu-Link.com,2013-12-10 22:29:00,
2013-12-10 17:44:00,34.2,33.7,30.07,SSW,202,0.0,-999.0,98,-99.99,,,0.63,Acu-Link.com,2013-12-10 22:44:00,
2013-12-10 17:59:00,32.9,32.4,30.08,NW,315,0.0,-999.0,98,-99.99,,,0.63,Acu-Link.com,2013-12-10 22:59:00,
2013-12-10 18:15:00,31.8,31.3,30.09,South,180,0.0,-999.0,98,-99.99,,,0.63,Acu-Link.com,2013-12-10 23:15:00,
2013-12-10 18:30:00,30.7,30.2,30.09,NNE,22,0.0,-999.0,98,-99.99,,,0.63,Acu-Link.com,2013-12-10 23:30:00,
2013-12-10 18:45:00,30.2,29.7,30.08,SE,135,0.0,-999.0,98,-99.99,,,0.63,Acu-Link.com,2013-12-10 23:45:00,
2013-12-10 19:00:00,29.5,29.0,30.11,NW,315,0.0,-999.0,98,-99.99,,,0.63,Acu-Link.com,2013-12-11 00:00:00,
2013-12-10 19:16:00,28.8,28.3,30.10,SSW,202,0.0,-999.0,98,-99.99,,,0.63,Acu-Link.com,2013-12-11 00:16:00,
2013-12-10 19:31:00,28.6,28.1,30.10,South,180,0.0,-999.0,98,-99.99,,,0.63,Acu-Link.com,2013-12-11 00:31:00,
2013-12-10 19:46:00,28.0,27.5,30.10,South,180,0.0,-999.0,98,-99.99,,,0.63,Acu-Link.com,2013-12-11 00:46:00,
2013-12-10 20:01:00,27.1,26.6,30.11,West,270,0.0,-999.0,98,-99.99,,,0.63,Acu-Link.com,2013-12-11 01:01:00,
2013-12-10 20:17:00,26.8,26.3,30.11,West,270,0.0,-999.0,98,-99.99,,,0.63,Acu-Link.com,2013-12-11 01:17:00,
2013-12-10 20:32:00,26.6,26.1,30.12,ESE,112,0.0,-999.0,98,-99.99,,,0.63,Acu-Link.com,2013-12-11 01:32:00,
2013-12-10 20:47:00,26.8,26.3,30.11,NNW,337,0.0,-999.0,98,-99.99,,,0.63,Acu-Link.com,2013-12-11 01:47:00,
2013-12-10 21:02:00,26.8,26.3,30.12,NE,45,1.1,-999.0,98,-99.99,,,0.63,Acu-Link.com,2013-12-11 02:02:00,
2013-12-10 21:17:00,26.8,26.3,30.11,ENE,67,0.0,-999.0,98,-99.99,,,0.63,Acu-Link.com,2013-12-11 02:17:00,
2013-12-10 21:32:00,26.2,25.7,30.12,West,270,0.0,-999.0,98,-99.99,,,0.63,Acu-Link.com,2013-12-11 02:32:00,
2013-12-10 21:48:00,26.2,25.7,30.10,West,270,0.0,-999.0,98,-99.99,,,0.63,Acu-Link.com,2013-12-11 02:48:00,
2013-12-10 22:03:00,25.5,25.0,30.11,ESE,112,0.0,-999.0,98,-99.99,,,0.63,Acu-Link.com,2013-12-11 03:03:00,
2013-12-10 22:18:00,25.3,24.8,30.10,ESE,112,1.7,-999.0,98,-99.99,,,0.63,Acu-Link.com,2013-12-11 03:18:00,
2013-12-10 22:33:00,25.2,24.7,30.10,ESE,112,0.0,-999.0,98,-99.99,,,0.63,Acu-Link.com,2013-12-11 03:33:00,
2013-12-10 22:48:00,24.8,24.3,30.09,ESE,112,0.0,-999.0,98,-99.99,,,0.63,Acu-Link.com,2013-12-11 03:48:00,
2013-12-10 23:03:00,24.1,23.6,30.11,ESE,112,0.0,-999.0,98,-99.99,,,0.63,Acu-Link.com,2013-12-11 04:03:00,
2013-12-10 23:18:00,23.9,23.4,30.10,ESE,112,1.1,-999.0,98,-99.99,,,0.63,Acu-Link.com,2013-12-11 04:18:00,
2013-12-10 23:34:00,24.3,23.8,30.10,ESE,112,0.0,-999.0,98,-99.99,,,0.63,Acu-Link.com,2013-12-11 04:34:00,
2013-12-10 23:49:00,23.9,23.4,30.11,ESE,112,0.0,-999.0,98,-99.99,,,0.63,Acu-Link.com,2013-12-11 04:49:00,